Time;durP1;ratioP1;P1;durP2;ratioP2;P2;SDS_P1;SDS_P2;PMS_P1;PMS_P2;Temp;Humidity;BMP_temperature;BMP_pressure;BME280_temperature;BME280_humidity;BME280_pressure;Samples;Min_cycle;Max_cycle;Signal;HPM_P1;HPM_P2
2023/12/11 00:01:36;;;;;;;33.90;5.17;;;11.50;99.90;;;;;;7290707;19;20682;-85
2023/12/11 00:04:02;;;;;;;43.53;6.33;;;11.40;99.90;;;;;;7287333;19;20195;-85
2023/12/11 00:06:28;;;;;;;37.67;5.40;;;11.40;99.90;;;;;;7287865;19;20202;-84
2023/12/11 00:08:54;;;;;;;37.97;4.97;;;11.40;99.90;;;;;;7307926;19;20259;-83
2023/12/11 00:11:20;;;;;;;36.73;5.10;;;11.40;99.90;;;;;;7296201;19;20207;-85
2023/12/11 00:13:46;;;;;;;35.10;5.00;;;11.40;99.90;;;;;;7283626;19;20795;-85
2023/12/11 00:16:11;;;;;;;40.80;4.73;;;11.40;99.90;;;;;;7284270;19;20206;-84
2023/12/11 00:18:37;;;;;;;32.13;5.27;;;11.40;99.90;;;;;;7285606;19;20656;-85
2023/12/11 00:21:03;;;;;;;30.83;4.43;;;11.40;99.90;;;;;;7286267;19;20223;-85
2023/12/11 00:23:29;;;;;;;37.97;5.33;;;11.40;99.90;;;;;;7285395;19;20189;-85
2023/12/11 00:25:55;;;;;;;32.27;4.93;;;11.40;99.90;;;;;;7299621;19;20752;-84
2023/12/11 00:28:22;;;;;;;39.00;4.53;;;11.40;99.90;;;;;;7302241;19;20195;-85
2023/12/11 00:30:48;;;;;;;37.77;5.60;;;11.40;99.90;;;;;;7286775;19;20192;-85
2023/12/11 00:33:13;;;;;;;38.97;4.90;;;11.40;99.90;;;;;;7285034;19;21142;-85
2023/12/11 00:35:39;;;;;;;34.13;5.63;;;11.40;99.90;;;;;;7284874;19;20196;-86
2023/12/11 00:38:05;;;;;;;32.67;4.70;;;11.40;99.90;;;;;;7286365;19;21170;-84
2023/12/11 00:40:31;;;;;;;34.93;4.47;;;11.40;99.90;;;;;;7285627;19;20278;-84
2023/12/11 00:42:56;;;;;;;34.63;5.03;;;11.40;99.90;;;;;;7285124;19;20691;-84
2023/12/11 00:45:22;;;;;;;36.57;4.87;;;11.30;99.90;;;;;;7317376;19;20207;-85
2023/12/11 00:47:48;;;;;;;35.50;5.50;;;11.40;99.90;;;;;;7283860;19;20203;-84
2023/12/11 00:50:14;;;;;;;42.60;5.47;;;11.40;99.90;;;;;;7284773;19;20685;-85
2023/12/11 00:52:39;;;;;;;39.83;5.27;;;11.30;99.90;;;;;;7284553;19;20210;-85
2023/12/11 00:55:06;;;;;;;37.77;4.97;;;11.40;99.90;;;;;;7284810;19;20199;-84
2023/12/11 00:57:32;;;;;;;30.07;4.83;;;11.40;99.90;;;;;;7282213;19;20202;-85
2023/12/11 00:59:58;;;;;;;36.50;4.83;;;11.40;99.90;;;;;;7284771;19;20312;-85
2023/12/11 01:02:23;;;;;;;29.73;4.27;;;11.40;99.90;;;;;;7306929;19;20183;-85
2023/12/11 01:04:49;;;;;;;35.67;4.83;;;11.50;99.90;;;;;;7284865;19;20196;-85
2023/12/11 01:07:15;;;;;;;30.73;4.47;;;11.60;99.90;;;;;;7284095;19;20191;-85
2023/12/11 01:09:41;;;;;;;39.83;4.90;;;11.60;99.90;;;;;;7282449;19;20272;-84
2023/12/11 01:12:07;;;;;;;36.03;4.83;;;11.70;99.90;;;;;;7283225;19;20199;-85
2023/12/11 01:14:33;;;;;;;25.97;4.37;;;11.70;99.90;;;;;;7283881;19;20594;-85
2023/12/11 01:16:59;;;;;;;31.40;4.37;;;11.70;99.90;;;;;;7282201;19;20211;-84
2023/12/11 01:19:24;;;;;;;41.83;5.13;;;11.80;99.90;;;;;;7298020;19;20199;-84
2023/12/11 01:21:50;;;;;;;36.60;4.90;;;11.90;99.90;;;;;;7297183;19;20274;-85
2023/12/11 01:24:16;;;;;;;30.63;4.83;;;11.80;99.90;;;;;;7282606;19;20255;-85
2023/12/11 01:26:42;;;;;;;33.17;4.30;;;11.80;99.90;;;;;;7284909;19;20560;-85
2023/12/11 01:29:08;;;;;;;38.60;5.10;;;11.70;99.90;;;;;;7282858;19;20579;-85
2023/12/11 01:31:34;;;;;;;30.67;4.77;;;11.80;99.90;;;;;;7283984;19;20188;-85
2023/12/11 01:33:59;;;;;;;36.67;5.10;;;11.80;99.90;;;;;;7283897;19;20195;-84
2023/12/11 01:36:25;;;;;;;30.13;4.40;;;11.90;99.90;;;;;;7289237;19;20226;-84
2023/12/11 01:38:51;;;;;;;33.60;5.30;;;12.00;99.90;;;;;;7307082;19;20188;-84
2023/12/11 01:41:17;;;;;;;34.87;5.10;;;12.00;99.90;;;;;;7283807;19;20206;-85
2023/12/11 01:43:54;;;;;;;33.87;4.30;;;12.00;99.90;;;;;;7282069;19;20667;-85
2023/12/11 01:46:21;;;;;;;32.37;4.73;;;11.90;99.90;;;;;;7281319;19;20183;-85
2023/12/11 01:48:49;;;;;;;31.30;4.90;;;11.80;99.90;;;;;;7279756;19;20198;-84
2023/12/11 01:51:16;;;;;;;32.87;4.50;;;11.80;99.90;;;;;;7282285;19;20205;-85
2023/12/11 01:53:44;;;;;;;30.00;4.40;;;11.80;99.90;;;;;;7282388;19;20187;-85
2023/12/11 01:56:10;;;;;;;38.83;4.87;;;11.80;99.90;;;;;;7282629;19;20203;-84
2023/12/11 01:58:36;;;;;;;28.30;4.33;;;11.90;99.90;;;;;;7283053;19;20192;-85
2023/12/11 02:01:02;;;;;;;36.53;4.67;;;11.90;99.90;;;;;;7283402;19;20662;-85
2023/12/11 02:03:28;;;;;;;26.13;4.43;;;12.00;99.90;;;;;;7283815;19;20196;-84
2023/12/11 02:05:54;;;;;;;29.07;4.80;;;12.00;99.90;;;;;;7305749;19;20191;-84
2023/12/11 02:08:19;;;;;;;31.73;4.57;;;12.10;99.90;;;;;;7283652;19;20201;-85
2023/12/11 02:10:45;;;;;;;35.77;4.83;;;12.00;99.90;;;;;;7294087;19;20188;-86
2023/12/11 02:13:11;;;;;;;28.83;4.40;;;12.00;99.90;;;;;;7290384;19;20194;-85
2023/12/11 02:15:40;;;;;;;34.77;4.67;;;12.00;99.90;;;;;;7286201;19;20193;-85
2023/12/11 02:18:08;;;;;;;29.47;4.57;;;12.00;99.90;;;;;;7288975;19;20234;-84
2023/12/11 02:20:35;;;;;;;28.43;4.07;;;12.00;99.90;;;;;;7288169;19;20655;-85
2023/12/11 02:23:04;;;;;;;29.37;4.73;;;12.00;99.90;;;;;;7287989;19;20726;-85
2023/12/11 02:25:33;;;;;;;31.37;4.73;;;11.90;99.90;;;;;;7288953;19;20199;-85
2023/12/11 02:27:59;;;;;;;28.53;3.93;;;11.90;99.90;;;;;;7284587;19;20296;-85
2023/12/11 02:30:25;;;;;;;22.30;3.77;;;11.90;99.90;;;;;;7301736;19;20744;-83
2023/12/11 02:32:52;;;;;;;31.60;4.17;;;12.00;99.90;;;;;;7306858;19;20621;-84
2023/12/11 02:35:17;;;;;;;29.47;4.97;;;12.00;99.90;;;;;;7288133;19;20226;-84
2023/12/11 02:37:43;;;;;;;35.53;4.33;;;12.10;99.90;;;;;;7289095;19;20256;-84
2023/12/11 02:40:09;;;;;;;27.13;3.73;;;11.90;99.90;;;;;;7288033;19;20188;-83
2023/12/11 02:42:35;;;;;;;29.90;4.70;;;12.00;99.90;;;;;;7289559;19;20197;-84
2023/12/11 02:45:01;;;;;;;30.60;4.53;;;11.80;99.90;;;;;;7286039;19;20219;-84
2023/12/11 02:47:27;;;;;;;27.37;4.07;;;11.80;99.90;;;;;;7287825;19;20202;-84
2023/12/11 02:49:52;;;;;;;28.97;4.13;;;11.90;99.90;;;;;;7309632;19;20300;-84
2023/12/11 02:52:18;;;;;;;32.03;4.37;;;12.00;99.90;;;;;;7289024;19;20183;-84
2023/12/11 02:54:44;;;;;;;27.07;3.63;;;12.00;99.90;;;;;;7289196;19;20204;-84
2023/12/11 02:57:10;;;;;;;32.63;4.17;;;12.00;99.90;;;;;;7287867;19;20303;-83
2023/12/11 02:59:36;;;;;;;35.97;4.83;;;12.00;99.90;;;;;;7287535;19;20227;-85
2023/12/11 03:02:02;;;;;;;26.77;3.90;;;12.00;99.90;;;;;;7287514;19;20184;-84
2023/12/11 03:04:28;;;;;;;32.30;4.27;;;12.10;99.90;;;;;;7288268;19;20267;-83
2023/12/11 03:06:54;;;;;;;26.37;4.53;;;12.10;99.90;;;;;;7306577;19;20199;-84
2023/12/11 03:09:20;;;;;;;32.97;4.97;;;12.00;99.90;;;;;;7289247;19;20308;-84
2023/12/11 03:11:48;;;;;;;24.83;3.67;;;12.00;99.90;;;;;;7289594;19;20670;-84
2023/12/11 03:14:14;;;;;;;30.93;4.30;;;11.90;99.90;;;;;;7288775;19;20254;-84
2023/12/11 03:16:40;;;;;;;31.97;4.47;;;11.90;99.90;;;;;;7288291;19;20209;-85
2023/12/11 03:19:06;;;;;;;26.80;4.03;;;11.80;99.90;;;;;;7287412;19;20200;-84
2023/12/11 03:21:32;;;;;;;27.70;3.80;;;11.80;99.90;;;;;;7288175;19;20210;-85
2023/12/11 03:23:58;;;;;;;31.33;4.03;;;11.80;99.90;;;;;;7286367;19;20194;-83
2023/12/11 03:26:24;;;;;;;33.93;4.23;;;11.80;99.90;;;;;;7308048;19;20211;-84
2023/12/11 03:28:50;;;;;;;33.00;5.20;;;11.90;99.90;;;;;;7286880;19;20187;-84
2023/12/11 03:31:15;;;;;;;27.03;3.90;;;11.80;99.90;;;;;;7286254;19;20312;-84
2023/12/11 03:33:41;;;;;;;24.30;3.97;;;11.80;99.90;;;;;;7288148;19;20209;-84
2023/12/11 03:36:07;;;;;;;31.50;4.23;;;11.70;99.90;;;;;;7288789;19;20892;-84
2023/12/11 03:38:33;;;;;;;27.10;4.00;;;11.70;99.90;;;;;;7285955;19;20202;-83
2023/12/11 03:40:59;;;;;;;28.43;3.27;;;11.70;99.90;;;;;;7292938;19;20793;-83
2023/12/11 03:43:25;;;;;;;24.57;3.50;;;11.70;99.90;;;;;;7304416;19;20722;-82
2023/12/11 03:45:55;;;;;;;28.27;3.33;;;11.70;99.90;;;;;;7299896;19;20218;-84
2023/12/11 03:48:21;;;;;;;25.97;3.90;;;11.80;99.90;;;;;;7287119;19;20192;-84
2023/12/11 03:50:46;;;;;;;24.17;3.43;;;11.80;99.90;;;;;;7288470;19;20207;-84
2023/12/11 03:53:12;;;;;;;30.87;4.07;;;11.90;99.90;;;;;;7285071;19;20262;-84
2023/12/11 03:55:38;;;;;;;29.30;3.70;;;11.80;99.90;;;;;;7287403;19;20203;-84
2023/12/11 03:58:04;;;;;;;27.10;3.87;;;11.70;99.90;;;;;;7287300;19;20196;-84
2023/12/11 04:00:30;;;;;;;29.20;3.60;;;11.70;99.90;;;;;;7287447;19;20184;-84
2023/12/11 04:02:55;;;;;;;29.30;3.93;;;11.80;99.90;;;;;;7293843;19;20692;-84
2023/12/11 04:05:21;;;;;;;28.53;3.87;;;11.90;99.90;;;;;;7308276;19;20192;-84
2023/12/11 04:07:47;;;;;;;26.47;3.70;;;11.90;99.90;;;;;;7281460;19;20192;-84
2023/12/11 04:10:13;;;;;;;26.43;4.10;;;12.00;99.90;;;;;;7282975;19;20210;-85
2023/12/11 04:12:42;;;;;;;26.23;4.10;;;12.00;99.90;;;;;;7285538;19;20185;-84
2023/12/11 04:15:08;;;;;;;30.80;3.63;;;12.00;99.90;;;;;;7284549;19;20273;-84
2023/12/11 04:17:34;;;;;;;24.30;3.90;;;12.00;99.90;;;;;;7285920;19;20181;-84
2023/12/11 04:20:00;;;;;;;27.47;3.70;;;12.00;99.90;;;;;;7288386;19;20285;-84
2023/12/11 04:22:26;;;;;;;26.07;3.70;;;12.00;99.90;;;;;;7293625;19;20281;-83
2023/12/11 04:24:51;;;;;;;26.70;3.90;;;12.00;99.90;;;;;;7307394;19;20544;-84
2023/12/11 04:27:17;;;;;;;25.20;4.20;;;11.90;99.90;;;;;;7284841;19;20192;-84
2023/12/11 04:29:43;;;;;;;29.83;4.17;;;11.70;99.90;;;;;;7285223;19;20192;-84
2023/12/11 04:32:09;;;;;;;27.37;4.20;;;11.70;99.90;;;;;;7284303;19;20176;-84
2023/12/11 04:34:34;;;;;;;27.73;3.90;;;11.80;99.90;;;;;;7285726;19;20247;-84
2023/12/11 04:37:00;;;;;;;25.83;4.00;;;11.70;99.90;;;;;;7285647;19;20992;-84
2023/12/11 04:39:26;;;;;;;29.73;3.50;;;11.70;99.90;;;;;;7290314;19;20192;-85
2023/12/11 04:41:52;;;;;;;23.50;3.13;;;11.80;99.90;;;;;;7307957;19;20206;-84
2023/12/11 04:44:17;;;;;;;22.87;3.43;;;11.70;99.90;;;;;;7287500;19;20188;-84
2023/12/11 04:46:43;;;;;;;31.53;4.27;;;11.70;99.90;;;;;;7288847;19;20742;-84
2023/12/11 04:49:09;;;;;;;22.67;4.07;;;11.70;99.90;;;;;;7284400;19;20553;-84
2023/12/11 04:51:34;;;;;;;33.70;4.50;;;11.70;99.90;;;;;;7284548;19;20639;-84
2023/12/11 04:54:00;;;;;;;26.13;3.63;;;11.70;99.90;;;;;;7283604;19;20613;-84
2023/12/11 04:56:26;;;;;;;25.03;4.00;;;11.80;99.90;;;;;;7287680;19;20183;-84
2023/12/11 04:58:52;;;;;;;25.17;3.47;;;11.60;99.90;;;;;;7307940;19;20183;-84
2023/12/11 05:01:18;;;;;;;23.37;3.40;;;11.60;99.90;;;;;;7284134;19;20187;-84
2023/12/11 05:03:44;;;;;;;22.33;3.57;;;11.60;99.90;;;;;;7285580;19;20194;-85
2023/12/11 05:06:10;;;;;;;25.77;4.33;;;11.60;99.90;;;;;;7285377;19;20201;-84
2023/12/11 05:08:36;;;;;;;23.30;3.57;;;11.60;99.90;;;;;;7291645;19;20219;-85
2023/12/11 05:11:02;;;;;;;28.30;4.17;;;11.60;99.90;;;;;;7285172;19;20671;-84
2023/12/11 05:13:27;;;;;;;28.57;4.10;;;11.60;99.90;;;;;;7283459;19;20189;-84
2023/12/11 05:15:53;;;;;;;30.13;3.90;;;11.60;99.90;;;;;;7304451;19;20200;-84
2023/12/11 05:18:19;;;;;;;25.03;3.97;;;11.60;99.90;;;;;;7284584;19;20196;-84
2023/12/11 05:20:45;;;;;;;26.23;4.07;;;11.60;99.90;;;;;;7283522;19;20708;-84
2023/12/11 05:23:10;;;;;;;26.00;3.30;;;11.70;99.90;;;;;;7284780;19;20667;-84
2023/12/11 05:25:36;;;;;;;26.50;3.67;;;11.70;99.90;;;;;;7284827;19;20218;-84
2023/12/11 05:28:02;;;;;;;30.50;4.50;;;11.60;99.90;;;;;;7283061;19;20192;-83
2023/12/11 05:30:28;;;;;;;29.77;3.87;;;11.60;99.90;;;;;;7281821;19;20192;-83
2023/12/11 05:32:53;;;;;;;32.53;4.27;;;11.60;99.90;;;;;;7304643;19;20210;-84
2023/12/11 05:35:19;;;;;;;31.90;4.13;;;11.70;99.90;;;;;;7285122;19;20181;-85
2023/12/11 05:37:45;;;;;;;35.67;4.53;;;11.70;99.90;;;;;;7283579;19;20202;-84
2023/12/11 05:40:11;;;;;;;32.37;4.23;;;11.70;99.90;;;;;;7283483;19;20187;-84
2023/12/11 05:42:37;;;;;;;31.10;4.10;;;11.80;99.90;;;;;;7282598;19;20188;-85
2023/12/11 05:45:03;;;;;;;31.33;4.00;;;11.90;99.90;;;;;;7289784;19;20226;-85
2023/12/11 05:47:29;;;;;;;28.10;3.97;;;11.90;99.90;;;;;;7290280;19;20742;-84
2023/12/11 05:49:55;;;;;;;31.10;4.33;;;12.00;99.90;;;;;;7306711;19;20191;-83
2023/12/11 05:52:21;;;;;;;27.80;4.63;;;12.10;99.90;;;;;;7302944;19;20200;-85
2023/12/11 05:54:46;;;;;;;28.67;4.27;;;12.10;99.90;;;;;;7289944;19;20196;-85
2023/12/11 05:57:12;;;;;;;27.20;3.97;;;12.00;99.90;;;;;;7290946;19;20193;-85
2023/12/11 05:59:38;;;;;;;29.40;4.03;;;12.10;99.90;;;;;;7291379;19;20192;-85
2023/12/11 06:02:04;;;;;;;31.40;5.10;;;12.00;99.90;;;;;;7289087;19;20188;-85
2023/12/11 06:04:29;;;;;;;27.90;4.40;;;12.10;99.90;;;;;;7288039;19;20210;-84
2023/12/11 06:06:55;;;;;;;26.73;4.10;;;12.00;99.90;;;;;;7303074;19;20180;-84
2023/12/11 06:09:21;;;;;;;36.83;4.40;;;12.00;99.90;;;;;;7312281;19;20184;-85
2023/12/11 06:11:47;;;;;;;26.50;4.20;;;11.80;99.90;;;;;;7289344;19;20653;-84
2023/12/11 06:14:13;;;;;;;30.90;4.50;;;11.80;99.90;;;;;;7288887;19;20203;-83
2023/12/11 06:16:39;;;;;;;35.37;5.40;;;11.60;99.90;;;;;;7287717;19;20554;-82
2023/12/11 06:19:05;;;;;;;33.23;5.13;;;11.60;99.90;;;;;;7286685;19;20212;-84
2023/12/11 06:21:30;;;;;;;31.40;4.20;;;11.60;99.90;;;;;;7289028;19;20697;-84
2023/12/11 06:23:56;;;;;;;27.23;4.13;;;11.60;99.90;;;;;;7295848;19;20200;-84
2023/12/11 06:26:31;;;;;;;26.00;4.53;;;11.60;99.90;;;;;;7309900;19;20215;-85
2023/12/11 06:28:59;;;;;;;29.40;4.50;;;11.60;99.90;;;;;;7266567;19;20195;-86
2023/12/11 06:31:26;;;;;;;38.40;5.83;;;11.60;99.90;;;;;;7309211;19;20207;-82
2023/12/11 06:33:51;;;;;;;36.10;5.17;;;11.60;99.90;;;;;;7310561;19;20199;-86
2023/12/11 06:36:17;;;;;;;35.63;4.60;;;11.50;99.90;;;;;;7302184;19;20199;-86
2023/12/11 06:38:43;;;;;;;34.47;4.53;;;11.50;99.90;;;;;;7289395;19;20202;-87
2023/12/11 06:41:09;;;;;;;36.53;4.73;;;11.40;99.90;;;;;;7289397;19;20207;-86
2023/12/11 06:43:37;;;;;;;31.53;4.37;;;11.40;99.90;;;;;;7286943;19;20208;-87
2023/12/11 06:46:03;;;;;;;24.10;4.07;;;11.40;99.90;;;;;;7287871;19;20557;-87
2023/12/11 06:48:29;;;;;;;29.20;4.30;;;11.40;99.90;;;;;;7290077;19;20184;-87
2023/12/11 06:50:55;;;;;;;28.73;4.00;;;11.40;99.90;;;;;;7307457;19;20320;-80
2023/12/11 06:53:21;;;;;;;34.90;5.10;;;11.30;99.90;;;;;;7299330;19;20221;-81
2023/12/11 06:55:47;;;;;;;31.80;5.03;;;11.40;99.90;;;;;;7282510;19;20192;-81
2023/12/11 06:58:12;;;;;;;28.23;4.70;;;11.30;99.90;;;;;;7284872;19;20196;-81
2023/12/11 07:00:38;;;;;;;34.87;4.67;;;11.40;99.90;;;;;;7287911;19;20283;-82
2023/12/11 07:03:05;;;;;;;44.13;5.17;;;11.50;99.90;;;;;;7289834;19;20193;-81
2023/12/11 07:05:31;;;;;;;34.63;4.77;;;11.60;99.90;;;;;;7291951;19;20188;-82
2023/12/11 07:07:57;;;;;;;39.40;5.83;;;11.60;99.90;;;;;;7288792;19;20742;-81
2023/12/11 07:10:23;;;;;;;35.13;5.77;;;11.70;99.90;;;;;;7309528;19;20199;-82
2023/12/11 07:12:49;;;;;;;30.73;5.10;;;11.70;99.90;;;;;;7285228;19;20196;-81
2023/12/11 07:15:15;;;;;;;33.57;5.37;;;11.70;99.90;;;;;;7286626;19;20214;-82
2023/12/11 07:17:41;;;;;;;34.13;5.30;;;11.70;99.90;;;;;;7285810;19;20196;-80
2023/12/11 07:20:07;;;;;;;29.43;4.67;;;11.80;99.90;;;;;;7287562;19;20205;-81
2023/12/11 07:22:34;;;;;;;39.10;5.10;;;11.70;99.90;;;;;;7284322;19;20215;-81
2023/12/11 07:25:00;;;;;;;38.50;4.80;;;11.80;99.90;;;;;;7284887;19;20195;-81
2023/12/11 07:27:26;;;;;;;34.90;5.03;;;11.80;99.90;;;;;;7294270;19;20216;-81
2023/12/11 07:29:52;;;;;;;35.67;4.67;;;11.90;99.90;;;;;;7308401;19;20199;-81
2023/12/11 07:32:18;;;;;;;45.07;5.37;;;11.80;99.90;;;;;;7288828;19;20194;-82
2023/12/11 07:34:44;;;;;;;35.77;5.37;;;11.90;99.90;;;;;;7288793;19;20194;-82
2023/12/11 07:37:10;;;;;;;39.70;5.10;;;11.90;99.90;;;;;;7289338;19;20251;-82
2023/12/11 07:39:36;;;;;;;41.17;5.50;;;11.90;99.90;;;;;;7286917;19;20196;-82
2023/12/11 07:42:01;;;;;;;39.93;5.50;;;11.90;99.90;;;;;;7285736;19;20615;-81
2023/12/11 07:44:27;;;;;;;38.93;6.10;;;11.90;99.90;;;;;;7286712;19;20655;-81
2023/12/11 07:46:53;;;;;;;34.67;4.93;;;11.90;99.90;;;;;;7309259;19;20289;-83
2023/12/11 07:49:18;;;;;;;33.77;4.90;;;12.00;99.90;;;;;;7285642;19;20189;-83
2023/12/11 07:51:44;;;;;;;31.90;4.57;;;12.00;99.90;;;;;;7287740;19;20189;-82
2023/12/11 07:54:12;;;;;;;34.90;5.93;;;12.00;99.90;;;;;;7287331;19;20260;-82
2023/12/11 07:56:38;;;;;;;39.27;4.80;;;11.90;99.90;;;;;;7287163;19;20205;-83
2023/12/11 07:59:03;;;;;;;29.80;4.77;;;12.00;99.90;;;;;;7285139;19;20196;-82
2023/12/11 08:01:32;;;;;;;32.90;4.73;;;12.00;99.90;;;;;;7286272;19;20205;-82
2023/12/11 08:03:59;;;;;;;37.33;5.07;;;12.10;99.90;;;;;;7289802;19;20530;-82
2023/12/11 08:06:25;;;;;;;35.33;5.43;;;12.00;99.90;;;;;;7304073;19;20198;-79
2023/12/11 08:08:51;;;;;;;45.87;5.73;;;12.10;99.90;;;;;;7296484;19;20275;-81
2023/12/11 08:11:21;;;;;;;36.57;5.80;;;12.10;99.90;;;;;;7285758;19;20191;-82
2023/12/11 08:13:48;;;;;;;37.97;5.63;;;12.10;99.90;;;;;;7284841;19;20391;-83
2023/12/11 08:16:15;;;;;;;28.97;4.80;;;12.10;99.90;;;;;;7284070;19;20196;-82
2023/12/11 08:18:42;;;;;;;35.20;5.47;;;12.00;99.90;;;;;;7283986;19;20219;-81
2023/12/11 08:21:08;;;;;;;33.67;5.43;;;11.90;99.90;;;;;;7281988;19;20667;-82
2023/12/11 08:23:33;;;;;;;35.80;4.57;;;12.10;99.90;;;;;;7283927;19;20187;-81
2023/12/11 08:25:59;;;;;;;32.57;4.53;;;12.10;99.90;;;;;;7285454;19;20536;-82
2023/12/11 08:28:25;;;;;;;31.13;4.60;;;12.20;99.90;;;;;;7304816;19;20180;-79
2023/12/11 08:30:51;;;;;;;30.67;5.37;;;12.20;99.90;;;;;;7299398;19;20204;-82
2023/12/11 08:33:17;;;;;;;35.83;4.80;;;12.20;99.90;;;;;;7285039;19;20196;-82
2023/12/11 08:35:43;;;;;;;36.23;5.77;;;12.20;99.90;;;;;;7285119;19;20197;-81
2023/12/11 08:38:10;;;;;;;36.33;5.50;;;12.30;99.90;;;;;;7282041;19;20690;-81
2023/12/11 08:40:36;;;;;;;33.13;5.00;;;12.30;99.90;;;;;;7281508;19;20199;-81
2023/12/11 08:43:01;;;;;;;31.20;4.77;;;12.20;99.90;;;;;;7281212;19;20220;-82
2023/12/11 08:45:27;;;;;;;28.93;5.10;;;12.20;99.90;;;;;;7283498;19;20197;-81
2023/12/11 08:47:53;;;;;;;35.27;5.40;;;12.40;99.90;;;;;;7305049;19;20176;-82
2023/12/11 08:50:18;;;;;;;40.10;5.53;;;12.40;99.90;;;;;;7283204;19;20206;-81
2023/12/11 08:52:44;;;;;;;32.10;5.47;;;12.50;99.90;;;;;;7284280;19;20183;-81
2023/12/11 08:55:10;;;;;;;30.20;4.87;;;12.40;99.90;;;;;;7283204;19;20198;-81
2023/12/11 08:57:36;;;;;;;30.67;5.10;;;12.30;99.90;;;;;;7270848;19;20264;-81
2023/12/11 09:00:05;;;;;;;32.37;5.23;;;12.30;99.90;;;;;;7278896;19;20196;-81
2023/12/11 09:02:31;;;;;;;33.27;4.57;;;12.20;99.90;;;;;;7279374;19;20638;-82
2023/12/11 09:04:57;;;;;;;27.10;4.50;;;12.20;99.90;;;;;;7281737;19;20187;-81
2023/12/11 09:07:22;;;;;;;29.67;4.23;;;12.20;99.90;;;;;;7300741;19;20233;-81
2023/12/11 09:09:48;;;;;;;23.27;3.37;;;12.10;99.90;;;;;;7277782;19;20194;-81
2023/12/11 09:12:14;;;;;;;24.43;3.70;;;12.10;99.90;;;;;;7278895;19;20216;-82
2023/12/11 09:14:41;;;;;;;28.07;4.07;;;12.20;99.90;;;;;;7277456;19;20177;-81
2023/12/11 09:17:06;;;;;;;43.37;14.73;;;12.30;99.90;;;;;;7279107;19;20185;-81
2023/12/11 09:19:32;;;;;;;27.43;5.40;;;12.30;99.90;;;;;;7281207;19;20578;-81
2023/12/11 09:21:58;;;;;;;26.43;4.13;;;12.50;99.90;;;;;;7280009;19;20534;-82
2023/12/11 09:24:24;;;;;;;27.90;3.87;;;12.50;99.90;;;;;;7298964;19;20915;-82
2023/12/11 09:26:50;;;;;;;27.67;4.30;;;12.50;99.90;;;;;;7279247;19;20193;-82
2023/12/11 09:29:15;;;;;;;28.70;4.00;;;12.50;99.90;;;;;;7280211;19;20959;-82
2023/12/11 09:31:43;;;;;;;27.23;4.40;;;12.50;99.90;;;;;;7282826;19;20978;-82
2023/12/11 09:34:09;;;;;;;27.40;4.67;;;12.60;99.90;;;;;;7281074;19;20185;-81
2023/12/11 09:36:35;;;;;;;34.20;5.50;;;12.70;99.90;;;;;;7279536;19;20181;-81
2023/12/11 09:39:01;;;;;;;27.87;4.40;;;12.80;99.90;;;;;;7282537;19;20192;-81
2023/12/11 09:41:33;;;;;;;29.30;4.20;;;12.80;99.90;;;;;;7289760;19;20269;-82
2023/12/11 09:44:01;;;;;;;28.30;4.67;;;12.70;99.90;;;;;;7279926;19;20603;-82
2023/12/11 09:46:29;;;;;;;34.00;4.90;;;12.70;99.90;;;;;;7288478;19;20191;-81
2023/12/11 09:48:55;;;;;;;27.23;4.23;;;12.70;99.90;;;;;;7301467;19;20651;-80
2023/12/11 09:51:21;;;;;;;29.37;4.23;;;12.80;99.90;;;;;;7294425;19;20176;-82
2023/12/11 09:53:48;;;;;;;31.97;4.70;;;12.80;99.90;;;;;;7282753;19;20181;-81
2023/12/11 09:56:15;;;;;;;23.63;4.47;;;12.80;99.90;;;;;;7282461;19;20214;-81
2023/12/11 09:58:43;;;;;;;32.17;4.33;;;12.80;99.90;;;;;;7280652;19;20599;-82
2023/12/11 10:01:12;;;;;;;24.53;3.90;;;12.70;99.90;;;;;;7281887;19;20185;-81
2023/12/11 10:03:39;;;;;;;25.27;4.07;;;12.60;99.90;;;;;;7281784;19;20558;-82
2023/12/11 10:06:05;;;;;;;29.93;3.47;;;12.60;99.90;;;;;;7280926;19;20206;-81
2023/12/11 10:08:40;;;;;;;26.20;3.50;;;12.50;99.90;;;;;;7280381;19;20196;-81
2023/12/11 10:11:14;;;;;;;21.83;3.23;;;12.50;99.90;;;;;;7280851;19;20196;-81
2023/12/11 10:13:40;;;;;;;23.60;3.20;;;12.60;99.90;;;;;;7281496;19;20213;-81
2023/12/11 10:16:29;;;;;;;25.23;3.90;;;12.60;99.90;;;;;;7281814;19;20192;-81
2023/12/11 10:18:56;;;;;;;19.27;3.30;;;12.50;99.90;;;;;;7283501;19;20189;-82
2023/12/11 10:21:26;;;;;;;20.53;3.20;;;12.60;99.90;;;;;;7280527;19;20298;-81
2023/12/11 10:24:03;;;;;;;22.30;3.40;;;12.70;99.90;;;;;;7282581;19;20183;-82
2023/12/11 10:26:33;;;;;;;23.03;3.27;;;12.70;99.90;;;;;;7246972;19;20200;-81
2023/12/11 10:29:19;;;;;;;18.83;3.40;;;12.80;99.90;;;;;;7275536;19;20713;-82
2023/12/11 10:31:46;;;;;;;21.27;3.23;;;12.90;99.90;;;;;;7281588;19;25294;-82
2023/12/11 10:34:12;;;;;;;28.37;3.60;;;12.90;99.90;;;;;;7283203;19;20191;-82
2023/12/11 10:36:51;;;;;;;21.17;3.03;;;12.90;99.90;;;;;;7285070;19;20209;-82
2023/12/11 10:39:20;;;;;;;21.57;3.03;;;12.90;99.90;;;;;;7284119;19;20536;-81
2023/12/11 10:41:46;;;;;;;18.23;2.90;;;12.90;99.90;;;;;;7284068;19;20182;-82
2023/12/11 10:44:26;;;;;;;22.93;3.17;;;13.00;99.90;;;;;;7284159;19;20563;-81
2023/12/11 10:46:55;;;;;;;17.50;2.60;;;13.00;99.90;;;;;;7283596;19;20196;-82
2023/12/11 10:49:24;;;;;;;17.77;2.97;;;12.90;99.90;;;;;;7284051;19;20553;-82
2023/12/11 10:51:51;;;;;;;22.00;3.00;;;12.90;99.90;;;;;;7283533;19;20207;-81
2023/12/11 10:54:18;;;;;;;25.63;3.47;;;12.90;99.90;;;;;;7283180;19;20184;-82
2023/12/11 10:56:46;;;;;;;22.97;2.70;;;13.00;99.90;;;;;;7282758;19;20750;-82
2023/12/11 10:59:12;;;;;;;17.10;2.90;;;13.10;99.90;;;;;;7284716;19;20817;-81
2023/12/11 11:01:41;;;;;;;25.30;3.13;;;13.10;99.90;;;;;;7279082;19;20200;-81
2023/12/11 11:04:09;;;;;;;22.23;2.97;;;13.10;99.90;;;;;;7277681;19;20199;-81
2023/12/11 11:06:42;;;;;;;19.90;2.40;;;13.20;99.90;;;;;;7279691;19;20197;-82
2023/12/11 11:09:14;;;;;;;20.63;3.10;;;13.30;99.90;;;;;;7282069;19;20180;-82
2023/12/11 11:11:49;;;;;;;21.77;3.37;;;13.30;99.90;;;;;;7285388;19;20591;-82
2023/12/11 11:14:38;;;;;;;20.70;2.80;;;13.40;99.90;;;;;;7280076;19;20192;-82
2023/12/11 11:17:05;;;;;;;19.73;2.90;;;13.30;99.90;;;;;;7179778;19;2005007;-82
2023/12/11 11:19:31;;;;;;;22.87;3.50;;;13.30;99.90;;;;;;7286812;19;20204;-82
2023/12/11 11:22:00;;;;;;;21.40;3.03;;;13.40;99.90;;;;;;7288819;19;20189;-82
2023/12/11 11:24:27;;;;;;;16.97;2.77;;;13.40;99.90;;;;;;7305607;19;20194;-78
2023/12/11 11:26:53;;;;;;;17.33;3.23;;;13.40;99.90;;;;;;7309199;19;20193;-82
2023/12/11 11:29:37;;;;;;;23.27;3.37;;;13.40;99.90;;;;;;7286623;19;21046;-82
2023/12/11 11:32:03;;;;;;;23.53;2.60;;;13.40;99.90;;;;;;7182619;19;2004610;-82
2023/12/11 11:34:42;;;;;;;20.20;3.37;;;13.40;99.90;;;;;;7284838;19;20197;-82
2023/12/11 11:37:18;;;;;;;22.47;3.13;;;13.50;99.90;;;;;;7285127;19;20184;-82
2023/12/11 11:40:05;;;;;;;25.80;3.10;;;13.60;99.90;;;;;;7286535;19;20197;-82
2023/12/11 11:42:32;;;;;;;17.73;2.70;;;13.50;99.90;;;;;;7183046;19;2004634;-82
2023/12/11 11:45:07;;;;;;;21.77;3.20;;;13.50;99.90;;;;;;7285104;19;20192;-82
2023/12/11 11:47:34;;;;;;;22.73;3.20;;;13.50;99.90;;;;;;7284284;19;20196;-82
2023/12/11 11:50:13;;;;;;;17.73;2.93;;;13.40;99.90;;;;;;7284715;19;20195;-82
2023/12/11 11:52:41;;;;;;;26.47;3.57;;;13.40;99.90;;;;;;7284895;19;20218;-82
2023/12/11 11:55:26;;;;;;;24.70;3.23;;;13.50;99.90;;;;;;7285580;19;20198;-82
2023/12/11 11:57:52;;;;;;;19.63;2.87;;;13.60;99.90;;;;;;7287161;19;20185;-82
2023/12/11 12:00:31;;;;;;;19.33;3.43;;;13.50;99.90;;;;;;7284690;19;20209;-82
2023/12/11 12:02:57;;;;;;;18.77;2.63;;;13.50;99.90;;;;;;7273004;19;20231;-81
2023/12/11 12:05:23;;;;;;;18.80;2.50;;;13.50;99.90;;;;;;7307140;19;20210;-82
2023/12/11 12:07:55;;;;;;;21.13;2.67;;;13.60;99.90;;;;;;7283788;19;20271;-81
2023/12/11 12:10:22;;;;;;;19.27;3.60;;;13.50;99.90;;;;;;7285991;19;20518;-82
2023/12/11 12:12:55;;;;;;;21.67;3.13;;;13.60;99.90;;;;;;7284288;19;20547;-82
2023/12/11 12:15:21;;;;;;;21.67;2.83;;;13.70;99.90;;;;;;7285805;19;20579;-82
2023/12/11 12:17:46;;;;;;;23.93;3.20;;;13.70;99.90;;;;;;7304283;19;20194;-82
2023/12/11 12:20:16;;;;;;;17.53;2.70;;;13.80;99.90;;;;;;7391408;19;20625;-82
2023/12/11 12:23:02;;;;;;;18.27;2.83;;;13.80;99.90;;;;;;7394786;19;20130;-82
2023/12/11 12:25:29;;;;;;;17.43;2.53;;;13.80;99.90;;;;;;7394795;19;20140;-81
2023/12/11 12:28:08;;;;;;;19.53;3.33;;;13.70;99.90;;;;;;7373010;19;20195;-82
2023/12/11 12:30:34;;;;;;;21.63;3.20;;;13.70;99.90;;;;;;7180998;19;2004600;-82
2023/12/11 12:33:02;;;;;;;23.47;2.80;;;13.80;99.90;;;;;;7282382;19;20177;-81
2023/12/11 12:35:30;;;;;;;21.70;3.13;;;13.70;99.90;;;;;;7285282;19;20196;-82